Newport News, VA (23601)

4:15 AM EDT on July 03, 2015 (GMT -0400)
Northampton | | Change Station
CLOSE
Current Station
Personal Weather Station
Location: Hampton, VA
Elevation: 23 ft
Nearby Weather Stations

Elev 23 ft 37.05 °N, 76.42 °W | Updated 14 minutes ago

Partly Cloudy
Partly Cloudy
69.3 °F
Feels Like 69.3 °F
N
1.6
Wind Variable Wind from North
Gusts 3.1 mph

Today
High -- | Low -- °F
--% Chance of Precip.
Yesterday
High -- | Low -- °F
Precip. -- in
5:50 AM 8:29 PM
Full, 98% visible
Pressure 29.90 in
Visibility 5.0 miles
Clouds Clear
Dew Point 30 °F
Humidity 23%
Rainfall 0.00 in
Snow Depth Not available.
UV 0 out of 12
Pollen 2.30 out of 12
Air Quality Not available.
Flu Activity Not available.
METAR KPHF 030754Z 35005KT 5SM BR CLR 20/19 A2990 RMK AO2 SLP125 T02000189

More Conditions Fewer Conditions

Pressure 29.90 in
Visibility 5.0 miles
Clouds Clear
Dew Point 30 °F
Humidity 23%
Rainfall 0.00 in
Snow Depth Not available.
UV 0 out of 12
Pollen 2.30 out of 12
Air Quality Not available.
Flu Activity Not available.
METAR KPHF 030754Z 35005KT 5SM BR CLR 20/19 A2990 RMK AO2 SLP125 T02000189

More Conditions Fewer Conditions

10-Day Weather Forecast

×

Almanac

Astronomy

Jul. 03, 2015 Rise Set
Actual Time
Civil Twilight
Nautical Twilight
Astronomical Twilight
Moon
Length of Visible Light
Length of Day
Tomorrow will be .
, % of the Moon is Illuminated

Today's Extremes

State Highs State Lows

Community

WunderPhotos

Upload Photos

1,834,634 photos uploaded!

WunderBlogs® & News

Nearby

Air Quality

  Air Quality AQ Index Pollutant
Not available.

Snow Depth

Station Depth Elevation

Earthquake Activity

City Distance Mag. Time & Date
Minimum magnitude displayed is 2.5.

Coastal Water Temperatures

Place Temperature

Stations

Nearby Weather Stations

Station Location Temp. Windchill Dew Point Humidity Wind Precip. Elev Updated Type